Time;durP1;ratioP1;P1;durP2;ratioP2;P2;SDS_P1;SDS_P2;PMS_P1;PMS_P2;Temp;Humidity;BMP_temperature;BMP_pressure;BME280_temperature;BME280_humidity;BME280_pressure;Samples;Min_cycle;Max_cycle;Signal;HPM_P1;HPM_P2
2023/10/03 00:00:36;;;;;;;33.83;16.80;;;16.40;99.90;;;;;;5154730;27;20206;-58
2023/10/03 00:03:04;;;;;;;34.40;17.45;;;16.30;99.90;;;;;;5154034;27;20218;-58
2023/10/03 00:05:31;;;;;;;33.65;17.50;;;16.30;99.90;;;;;;5154160;27;20214;-58
2023/10/03 00:08:03;;;;;;;30.58;17.08;;;16.30;99.90;;;;;;5153707;27;20313;-56
2023/10/03 00:10:31;;;;;;;33.33;16.80;;;16.40;99.90;;;;;;5154332;27;20198;-57
2023/10/03 00:12:59;;;;;;;33.70;17.42;;;16.30;99.90;;;;;;5153939;27;20663;-57
2023/10/03 00:15:28;;;;;;;35.17;17.48;;;16.30;99.90;;;;;;5154064;27;20266;-57
2023/10/03 00:17:55;;;;;;;35.88;18.27;;;16.30;99.90;;;;;;5153751;27;20319;-56
2023/10/03 00:20:22;;;;;;;32.75;17.95;;;16.30;99.90;;;;;;5153880;27;20202;-57
2023/10/03 00:22:50;;;;;;;32.25;16.60;;;16.30;99.90;;;;;;5153591;27;20225;-59
2023/10/03 00:25:23;;;;;;;33.15;17.70;;;16.30;99.90;;;;;;5152945;27;20586;-57
2023/10/03 00:27:51;;;;;;;33.45;17.52;;;16.00;99.90;;;;;;5153809;27;20218;-61
2023/10/03 00:30:19;;;;;;;31.90;16.77;;;16.30;99.90;;;;;;5153886;27;20207;-59
2023/10/03 00:32:47;;;;;;;29.63;16.63;;;16.20;99.90;;;;;;5153640;27;20295;-58
2023/10/03 00:35:15;;;;;;;33.50;17.58;;;16.20;99.90;;;;;;5153479;27;20198;-57
2023/10/03 00:37:43;;;;;;;31.55;16.95;;;16.20;99.90;;;;;;5153558;27;20232;-58
2023/10/03 00:40:26;;;;;;;32.67;17.45;;;16.20;99.90;;;;;;5153767;27;20194;-58
2023/10/03 00:42:58;;;;;;;32.70;17.48;;;16.10;99.90;;;;;;5153256;27;20309;-57
2023/10/03 00:45:26;;;;;;;32.20;16.90;;;16.10;99.90;;;;;;5153410;27;20198;-58
2023/10/03 00:47:54;;;;;;;32.20;16.83;;;16.10;99.90;;;;;;5153181;27;20222;-57
2023/10/03 00:50:25;;;;;;;33.38;17.38;;;16.00;99.90;;;;;;5153638;27;20230;-59
2023/10/03 00:52:55;;;;;;;35.85;17.58;;;16.00;99.90;;;;;;5153284;27;20230;-58
2023/10/03 00:55:24;;;;;;;30.17;16.60;;;15.90;99.90;;;;;;5153241;27;20206;-59
2023/10/03 00:58:01;;;;;;;33.33;17.77;;;15.90;99.90;;;;;;5152875;27;20495;-59
2023/10/03 01:00:30;;;;;;;32.40;16.83;;;15.90;99.90;;;;;;5153035;27;20731;-59
2023/10/03 01:02:58;;;;;;;32.38;17.33;;;15.80;99.90;;;;;;5152710;27;20218;-58
2023/10/03 01:05:25;;;;;;;31.00;16.48;;;15.80;99.90;;;;;;5152958;27;20202;-59
2023/10/03 01:07:52;;;;;;;30.73;16.77;;;15.80;99.90;;;;;;5152715;27;20321;-58
2023/10/03 01:10:20;;;;;;;31.42;17.20;;;15.80;99.90;;;;;;5153138;27;20198;-59
2023/10/03 01:12:48;;;;;;;31.13;17.70;;;15.70;99.90;;;;;;5152691;27;20472;-58
2023/10/03 01:15:17;;;;;;;31.55;15.73;;;15.70;99.90;;;;;;5153148;27;20698;-59
2023/10/03 01:17:49;;;;;;;33.90;17.70;;;15.70;99.90;;;;;;5153428;27;20308;-58
2023/10/03 01:20:23;;;;;;;30.42;16.25;;;15.60;99.90;;;;;;5153626;27;20221;-59
2023/10/03 01:22:54;;;;;;;32.00;17.43;;;15.60;99.90;;;;;;5153148;27;20218;-57
2023/10/03 01:25:22;;;;;;;35.10;17.42;;;15.60;99.90;;;;;;5153136;27;20202;-58
2023/10/03 01:27:49;;;;;;;31.58;16.52;;;15.60;99.90;;;;;;5152971;27;20274;-58
2023/10/03 01:30:15;;;;;;;35.25;18.17;;;15.60;99.90;;;;;;5153645;27;20237;-58
2023/10/03 01:32:54;;;;;;;35.83;18.52;;;15.50;99.90;;;;;;5152888;27;20206;-58
2023/10/03 01:35:22;;;;;;;33.55;17.95;;;15.50;99.90;;;;;;5152701;27;20206;-58
2023/10/03 01:37:49;;;;;;;31.48;17.48;;;15.50;99.90;;;;;;5152095;27;20222;-58
2023/10/03 01:40:17;;;;;;;29.80;16.57;;;15.50;99.90;;;;;;5153083;27;20206;-58
2023/10/03 01:42:46;;;;;;;31.23;17.20;;;15.50;99.90;;;;;;5152389;27;20287;-58
2023/10/03 01:45:15;;;;;;;32.90;17.40;;;15.50;99.90;;;;;;5152569;27;20199;-58
2023/10/03 01:47:45;;;;;;;34.17;17.65;;;15.50;99.90;;;;;;5152395;27;20316;-56
2023/10/03 01:50:12;;;;;;;29.63;16.55;;;15.50;99.90;;;;;;5152611;27;20209;-55
2023/10/03 01:52:40;;;;;;;35.83;18.33;;;15.50;99.90;;;;;;5152500;27;20198;-55
2023/10/03 01:55:09;;;;;;;32.28;17.60;;;15.60;99.90;;;;;;5144031;27;20202;-55
2023/10/03 01:57:37;;;;;;;32.58;17.27;;;15.60;99.90;;;;;;5151918;27;20229;-55
2023/10/03 02:00:11;;;;;;;30.65;16.27;;;15.60;99.90;;;;;;5152309;27;20289;-55
2023/10/03 02:02:38;;;;;;;34.78;17.48;;;15.50;99.90;;;;;;5151896;27;20440;-57
2023/10/03 02:05:07;;;;;;;35.22;17.38;;;15.60;99.90;;;;;;5152275;27;20239;-55
2023/10/03 02:07:34;;;;;;;32.13;16.80;;;15.50;99.90;;;;;;5151787;27;20247;-55
2023/10/03 02:10:01;;;;;;;39.85;18.73;;;15.50;99.90;;;;;;5152472;27;20668;-55
2023/10/03 02:12:29;;;;;;;35.72;16.98;;;15.60;99.90;;;;;;5152575;27;20281;-56
2023/10/03 02:14:55;;;;;;;34.83;18.20;;;15.60;99.90;;;;;;5152051;27;20201;-56
2023/10/03 02:17:23;;;;;;;31.40;17.20;;;15.60;99.90;;;;;;5151956;27;20202;-56
2023/10/03 02:19:52;;;;;;;35.00;16.80;;;15.60;99.90;;;;;;5151911;27;20658;-56
2023/10/03 02:22:19;;;;;;;32.47;17.35;;;15.50;99.90;;;;;;5152151;27;20229;-58
2023/10/03 02:24:47;;;;;;;31.85;17.35;;;15.60;99.90;;;;;;5152140;27;20194;-56
2023/10/03 02:27:14;;;;;;;34.03;17.60;;;15.50;99.90;;;;;;5151682;27;20198;-56
2023/10/03 02:29:41;;;;;;;31.42;17.58;;;15.50;99.90;;;;;;5151964;27;20202;-56
2023/10/03 02:32:08;;;;;;;36.00;17.73;;;15.50;99.90;;;;;;5143641;27;20279;-56
2023/10/03 02:34:39;;;;;;;31.30;16.73;;;15.50;99.90;;;;;;5151921;27;20243;-58
2023/10/03 02:37:06;;;;;;;35.08;17.15;;;15.50;99.90;;;;;;5151933;27;20198;-56
2023/10/03 02:39:38;;;;;;;34.95;16.77;;;15.50;99.90;;;;;;5151921;27;20218;-56
2023/10/03 02:42:10;;;;;;;30.63;16.85;;;15.40;99.90;;;;;;5151747;27;20206;-56
2023/10/03 02:44:37;;;;;;;33.70;17.77;;;15.50;99.90;;;;;;5151675;27;20271;-55
2023/10/03 02:47:04;;;;;;;32.47;17.63;;;15.50;99.90;;;;;;5151422;27;20206;-57
2023/10/03 02:49:31;;;;;;;35.58;17.95;;;15.60;99.90;;;;;;5155080;27;20257;-54
2023/10/03 02:52:00;;;;;;;34.53;17.67;;;15.60;99.90;;;;;;5155561;27;20233;-55
2023/10/03 02:54:26;;;;;;;33.17;17.23;;;15.50;99.90;;;;;;5155681;27;20226;-56
2023/10/03 02:56:53;;;;;;;37.35;17.35;;;15.50;99.90;;;;;;5155263;27;20204;-55
2023/10/03 02:59:20;;;;;;;31.23;17.25;;;15.50;99.90;;;;;;5155685;27;20214;-56
2023/10/03 03:01:52;;;;;;;34.63;17.67;;;15.50;99.90;;;;;;5155212;27;20213;-56
2023/10/03 03:04:21;;;;;;;33.17;16.90;;;15.50;99.90;;;;;;5155497;27;20282;-55
2023/10/03 03:06:50;;;;;;;32.75;17.02;;;15.40;99.90;;;;;;5155319;27;20202;-55
2023/10/03 03:09:23;;;;;;;36.72;17.98;;;15.40;99.90;;;;;;5155285;27;20632;-56
2023/10/03 03:11:51;;;;;;;33.95;17.20;;;15.40;99.90;;;;;;5155422;27;20297;-56
2023/10/03 03:14:18;;;;;;;34.30;17.60;;;15.40;99.90;;;;;;5155332;27;20252;-56
2023/10/03 03:16:48;;;;;;;32.30;16.85;;;15.40;99.90;;;;;;5154930;27;20667;-56
2023/10/03 03:19:15;;;;;;;31.80;16.77;;;15.50;99.90;;;;;;5155310;27;20261;-55
2023/10/03 03:21:44;;;;;;;30.92;16.00;;;15.50;99.90;;;;;;5154883;27;20210;-55
2023/10/03 03:24:17;;;;;;;32.08;17.17;;;15.50;99.90;;;;;;5146986;27;20217;-56
2023/10/03 03:26:47;;;;;;;31.48;16.33;;;15.40;99.90;;;;;;5155089;27;20210;-55
2023/10/03 03:29:20;;;;;;;31.65;16.85;;;15.50;99.90;;;;;;5147311;27;20222;-57
2023/10/03 03:31:48;;;;;;;27.98;15.32;;;15.50;99.90;;;;;;5155064;27;20226;-56
2023/10/03 03:34:15;;;;;;;26.98;15.38;;;15.60;99.90;;;;;;5155158;27;20198;-56
2023/10/03 03:36:46;;;;;;;29.88;16.35;;;15.60;99.90;;;;;;5155073;27;20669;-55
2023/10/03 03:39:15;;;;;;;30.20;16.33;;;15.60;99.90;;;;;;5146947;27;20218;-55
2023/10/03 03:41:43;;;;;;;29.20;15.43;;;15.60;99.90;;;;;;5154621;27;20670;-56
2023/10/03 03:44:12;;;;;;;32.03;16.48;;;15.60;99.90;;;;;;5146145;27;20301;-56
2023/10/03 03:46:40;;;;;;;33.75;17.17;;;15.60;99.90;;;;;;5154655;27;20580;-56
2023/10/03 03:49:08;;;;;;;36.53;16.13;;;15.60;99.90;;;;;;5154588;27;20218;-55
2023/10/03 03:51:35;;;;;;;29.33;16.15;;;15.60;99.90;;;;;;5154676;27;20202;-55
2023/10/03 03:54:02;;;;;;;30.20;16.23;;;15.60;99.90;;;;;;5154698;27;20720;-55
2023/10/03 03:56:29;;;;;;;31.17;15.52;;;15.60;99.90;;;;;;5154237;27;20210;-56
2023/10/03 03:58:56;;;;;;;26.13;14.57;;;15.60;99.90;;;;;;5154216;27;20313;-55
2023/10/03 04:01:24;;;;;;;28.57;15.53;;;15.60;99.90;;;;;;5154287;27;20675;-55
2023/10/03 04:03:53;;;;;;;27.10;14.65;;;15.50;99.90;;;;;;5154488;27;20215;-57
2023/10/03 04:06:20;;;;;;;32.20;15.90;;;15.50;99.90;;;;;;5154208;27;20194;-55
2023/10/03 04:08:47;;;;;;;31.73;15.40;;;15.60;99.90;;;;;;5154292;27;20229;-55
2023/10/03 04:11:14;;;;;;;27.63;14.95;;;15.60;99.90;;;;;;5154207;27;20243;-54
2023/10/03 04:13:49;;;;;;;28.23;14.88;;;15.50;99.90;;;;;;5154340;27;20198;-57
2023/10/03 04:16:16;;;;;;;28.85;15.23;;;15.50;99.90;;;;;;5146582;27;20202;-56
2023/10/03 04:18:47;;;;;;;26.25;14.50;;;15.50;99.90;;;;;;5154381;27;20229;-56
2023/10/03 04:21:14;;;;;;;26.88;15.20;;;15.50;99.90;;;;;;5146139;27;20206;-55
2023/10/03 04:23:40;;;;;;;31.15;14.77;;;15.50;99.90;;;;;;5154123;27;20221;-55
2023/10/03 04:26:09;;;;;;;28.30;14.18;;;15.50;99.90;;;;;;5154016;27;20254;-55
2023/10/03 04:28:36;;;;;;;27.98;14.68;;;15.50;99.90;;;;;;5154085;27;20226;-56
2023/10/03 04:31:03;;;;;;;25.77;13.32;;;15.60;99.90;;;;;;5153982;27;20202;-56
2023/10/03 04:33:30;;;;;;;26.27;14.60;;;15.60;99.90;;;;;;5154287;27;20198;-55
2023/10/03 04:36:03;;;;;;;26.70;13.65;;;15.60;99.90;;;;;;5153734;27;20237;-55
2023/10/03 04:38:31;;;;;;;22.75;13.15;;;15.60;99.90;;;;;;5153877;27;20594;-55
2023/10/03 04:40:58;;;;;;;20.50;11.15;;;15.70;99.90;;;;;;5153489;27;20208;-55
2023/10/03 04:43:27;;;;;;;19.52;11.75;;;15.70;99.90;;;;;;5153784;27;20218;-56
2023/10/03 04:45:54;;;;;;;21.77;11.40;;;15.90;99.90;;;;;;5153603;27;20285;-55
2023/10/03 04:48:22;;;;;;;18.55;10.27;;;16.00;99.90;;;;;;5153219;27;20214;-55
2023/10/03 04:50:49;;;;;;;17.52;8.80;;;16.20;99.90;;;;;;5153569;27;20194;-55
2023/10/03 04:53:18;;;;;;;16.95;9.57;;;16.30;99.90;;;;;;5154041;27;20194;-55
2023/10/03 04:55:47;;;;;;;16.27;9.15;;;16.50;99.90;;;;;;5153214;27;20198;-55
2023/10/03 04:58:14;;;;;;;15.75;9.13;;;16.70;99.90;;;;;;5144933;27;20222;-55
2023/10/03 05:00:42;;;;;;;17.30;9.48;;;16.80;99.90;;;;;;5153288;27;20209;-56
2023/10/03 05:03:09;;;;;;;15.25;8.57;;;17.00;99.90;;;;;;5153407;27;20237;-54
2023/10/03 05:05:36;;;;;;;15.70;8.88;;;17.10;99.90;;;;;;5153157;27;20198;-55
2023/10/03 05:08:04;;;;;;;15.65;8.68;;;17.20;99.90;;;;;;5152691;27;20248;-56
2023/10/03 05:10:33;;;;;;;14.55;8.15;;;17.30;99.90;;;;;;5152417;27;20640;-56
2023/10/03 05:13:00;;;;;;;13.27;7.95;;;17.40;99.90;;;;;;5152961;27;20266;-56
2023/10/03 05:15:30;;;;;;;14.82;8.30;;;17.60;99.90;;;;;;5152884;27;20198;-56
2023/10/03 05:17:56;;;;;;;17.63;7.90;;;17.70;99.90;;;;;;5152546;27;20309;-56
2023/10/03 05:20:34;;;;;;;12.15;7.75;;;17.80;99.90;;;;;;5152744;27;20233;-56
2023/10/03 05:23:02;;;;;;;16.55;8.25;;;17.90;99.90;;;;;;5152700;27;20585;-56
2023/10/03 05:25:28;;;;;;;16.42;8.05;;;18.00;99.90;;;;;;5152865;27;20292;-56
2023/10/03 05:27:56;;;;;;;15.95;8.30;;;18.10;99.90;;;;;;5152166;27;20221;-56
2023/10/03 05:30:25;;;;;;;14.18;7.97;;;18.30;99.90;;;;;;5152468;27;20208;-55
2023/10/03 05:32:52;;;;;;;11.13;7.28;;;18.40;99.90;;;;;;5152498;27;20198;-56
2023/10/03 05:35:18;;;;;;;15.88;8.05;;;18.50;99.90;;;;;;5152315;27;20582;-58
2023/10/03 05:37:45;;;;;;;14.15;7.95;;;18.60;99.90;;;;;;5152886;27;20240;-56
2023/10/03 05:40:18;;;;;;;15.45;8.00;;;18.60;99.90;;;;;;5152410;27;20209;-58
2023/10/03 05:42:47;;;;;;;12.82;7.65;;;18.60;99.90;;;;;;5152478;27;20194;-56
2023/10/03 05:45:16;;;;;;;11.93;7.28;;;18.70;99.90;;;;;;5143611;27;20247;-56
2023/10/03 05:47:44;;;;;;;14.20;8.18;;;18.80;99.90;;;;;;5152183;27;20770;-56
2023/10/03 05:50:11;;;;;;;12.80;7.93;;;18.80;99.90;;;;;;5152389;27;20198;-57
2023/10/03 05:52:39;;;;;;;12.02;7.18;;;18.90;99.90;;;;;;5152561;27;20655;-56
2023/10/03 05:55:07;;;;;;;12.70;6.55;;;19.00;99.90;;;;;;5151932;27;20208;-56
2023/10/03 05:57:34;;;;;;;11.73;7.00;;;19.10;99.90;;;;;;5152114;27;20247;-56
2023/10/03 06:00:00;;;;;;;13.05;7.47;;;19.10;99.90;;;;;;5151982;27;20739;-56
2023/10/03 06:02:28;;;;;;;11.93;7.20;;;19.30;99.90;;;;;;5151949;27;20202;-56
2023/10/03 06:04:55;;;;;;;12.23;7.18;;;19.40;99.90;;;;;;5151932;27;20214;-57
2023/10/03 06:07:23;;;;;;;13.13;7.57;;;19.50;99.90;;;;;;5152056;27;20198;-56
2023/10/03 06:09:50;;;;;;;11.00;6.90;;;19.60;99.90;;;;;;5151993;27;20210;-56
2023/10/03 06:12:17;;;;;;;13.32;7.20;;;19.70;99.90;;;;;;5152115;27;20203;-55
2023/10/03 06:14:44;;;;;;;11.38;6.68;;;19.90;99.90;;;;;;5151983;27;20198;-57
2023/10/03 06:17:12;;;;;;;13.07;7.13;;;20.00;99.90;;;;;;5151914;27;20198;-57
2023/10/03 06:19:41;;;;;;;12.73;7.00;;;20.20;99.90;;;;;;5152289;27;20223;-56
2023/10/03 06:22:08;;;;;;;14.50;7.55;;;20.60;99.90;;;;;;5151848;27;20206;-57
2023/10/03 06:24:35;;;;;;;13.25;7.43;;;21.40;99.90;;;;;;5155531;27;20222;-56
2023/10/03 06:27:03;;;;;;;13.30;7.95;;;22.30;99.90;;;;;;5156017;27;20201;-57
2023/10/03 06:29:30;;;;;;;10.85;6.85;;;23.40;99.90;;;;;;5156212;27;20274;-57
2023/10/03 06:31:57;;;;;;;10.23;6.97;;;24.30;99.90;;;;;;5155985;27;20229;-57
2023/10/03 06:34:25;;;;;;;11.98;6.40;;;24.60;99.90;;;;;;5156144;27;20205;-59
2023/10/03 06:36:53;;;;;;;13.63;7.20;;;24.60;99.90;;;;;;5155770;27;20677;-57
2023/10/03 06:39:20;;;;;;;13.20;7.18;;;24.60;99.90;;;;;;5156153;27;20218;-59
2023/10/03 06:41:47;;;;;;;12.43;7.10;;;24.80;99.90;;;;;;5156159;27;20221;-57
2023/10/03 06:44:14;;;;;;;11.02;7.05;;;25.50;99.90;;;;;;5155704;27;20214;-57
2023/10/03 06:46:42;;;;;;;11.50;7.05;;;26.10;99.90;;;;;;5155907;27;20198;-58
2023/10/03 06:49:10;;;;;;;12.15;7.25;;;26.60;99.90;;;;;;5155554;27;20282;-57
2023/10/03 06:51:37;;;;;;;10.32;6.68;;;27.10;99.90;;;;;;5155983;27;20292;-58
2023/10/03 06:54:06;;;;;;;11.68;6.72;;;27.50;99.90;;;;;;5155613;27;20252;-57
2023/10/03 06:56:34;;;;;;;12.18;7.00;;;28.10;99.90;;;;;;5155635;27;20209;-58
2023/10/03 06:59:01;;;;;;;11.07;6.78;;;28.70;99.00;;;;;;5155724;27;20722;-58
2023/10/03 07:01:27;;;;;;;10.30;6.32;;;28.90;97.50;;;;;;5155731;27;20206;-58
2023/10/03 07:03:56;;;;;;;10.80;7.05;;;29.10;96.80;;;;;;5155230;27;20230;-59
2023/10/03 07:06:23;;;;;;;11.38;6.38;;;29.50;96.10;;;;;;5155481;27;20198;-58
2023/10/03 07:08:49;;;;;;;11.70;7.32;;;29.90;94.70;;;;;;5155296;27;20224;-58
2023/10/03 07:11:17;;;;;;;10.05;6.70;;;30.30;93.50;;;;;;5146924;27;20287;-57
2023/10/03 07:13:44;;;;;;;9.10;6.35;;;30.40;92.40;;;;;;5155547;27;20202;-59
2023/10/03 07:16:12;;;;;;;9.40;6.38;;;30.30;91.90;;;;;;5155232;27;20248;-56
2023/10/03 07:18:39;;;;;;;9.73;6.35;;;30.40;91.50;;;;;;5155197;27;20595;-57
2023/10/03 07:21:06;;;;;;;9.05;6.20;;;30.80;90.50;;;;;;5155249;27;20635;-56
2023/10/03 07:23:33;;;;;;;11.48;6.50;;;30.90;90.20;;;;;;5155276;27;20202;-56
2023/10/03 07:26:00;;;;;;;12.05;6.43;;;31.10;89.10;;;;;;5155174;27;20202;-56
2023/10/03 07:28:28;;;;;;;10.23;6.30;;;31.10;88.00;;;;;;5155166;27;20228;-58
2023/10/03 07:30:56;;;;;;;9.68;5.97;;;31.00;87.80;;;;;;5155058;27;20199;-60
2023/10/03 07:33:22;;;;;;;8.90;5.80;;;30.50;88.20;;;;;;5155090;27;20225;-56
2023/10/03 07:35:49;;;;;;;10.88;6.30;;;29.80;89.20;;;;;;5154994;27;20254;-57
2023/10/03 07:38:17;;;;;;;9.10;5.95;;;29.10;90.50;;;;;;5154787;27;20265;-56
2023/10/03 07:40:44;;;;;;;8.63;5.82;;;28.60;91.20;;;;;;5155279;27;20586;-57
2023/10/03 07:43:12;;;;;;;8.07;5.70;;;28.20;91.80;;;;;;5155353;27;20198;-60
2023/10/03 07:45:40;;;;;;;9.93;5.45;;;27.90;92.00;;;;;;5155197;27;20309;-56
2023/10/03 07:48:10;;;;;;;9.93;5.50;;;27.50;92.40;;;;;;5156858;22;20231;-59
2023/10/03 07:50:37;;;;;;;9.88;5.90;;;27.10;93.00;;;;;;5105033;28;20199;-60
2023/10/03 07:53:04;;;;;;;15.07;5.85;;;26.80;93.40;;;;;;5103622;28;20260;-60
2023/10/03 07:55:35;;;;;;;7.68;5.55;;;26.60;93.80;;;;;;5101314;28;20204;-60
2023/10/03 07:58:02;;;;;;;8.65;5.45;;;26.40;94.20;;;;;;5108014;27;20219;-59
2023/10/03 08:00:29;;;;;;;7.90;5.40;;;26.20;94.60;;;;;;5125463;27;20268;-60
2023/10/03 08:02:58;;;;;;;7.05;4.68;;;26.10;95.20;;;;;;5124555;27;20329;-59
2023/10/03 08:05:27;;;;;;;9.75;5.60;;;26.00;95.10;;;;;;5121754;27;20233;-60
2023/10/03 08:07:55;;;;;;;8.13;5.90;;;25.90;95.30;;;;;;5121490;27;20769;-61
2023/10/03 08:10:23;;;;;;;8.57;5.22;;;25.80;96.50;;;;;;5125411;27;20206;-59
2023/10/03 08:12:52;;;;;;;7.13;5.07;;;25.80;96.10;;;;;;5125105;27;20203;-60
2023/10/03 08:15:19;;;;;;;7.72;5.00;;;25.80;95.90;;;;;;5113251;27;20605;-60
2023/10/03 08:17:48;;;;;;;9.00;5.75;;;25.80;95.90;;;;;;5121420;27;20254;-61
2023/10/03 08:20:18;;;;;;;9.05;6.30;;;25.90;97.90;;;;;;5124381;27;20199;-65
2023/10/03 08:22:50;;;;;;;8.60;5.47;;;25.90;97.70;;;;;;5125148;27;20627;-65
2023/10/03 08:25:18;;;;;;;8.45;4.82;;;26.00;96.20;;;;;;5121664;27;20219;-65
2023/10/03 08:27:46;;;;;;;9.02;4.85;;;26.00;95.90;;;;;;5121172;27;20215;-65
2023/10/03 08:30:25;;;;;;;11.13;5.18;;;26.20;95.70;;;;;;5129661;27;20211;-65
2023/10/03 08:32:54;;;;;;;7.95;5.35;;;26.40;95.60;;;;;;5121575;27;20245;-65
2023/10/03 08:35:34;;;;;;;7.57;4.90;;;26.70;95.60;;;;;;5113217;27;20660;-66
2023/10/03 08:38:04;;;;;;;9.48;5.30;;;26.90;94.90;;;;;;5121962;27;20220;-67
2023/10/03 08:40:32;;;;;;;7.30;4.93;;;27.20;94.40;;;;;;5124650;27;20247;-64
2023/10/03 08:43:02;;;;;;;9.00;5.25;;;27.50;93.90;;;;;;5123955;27;20207;-64
2023/10/03 08:45:34;;;;;;;7.68;4.53;;;27.70;93.50;;;;;;5120224;27;20726;-65
2023/10/03 08:48:06;;;;;;;9.82;5.32;;;27.90;93.30;;;;;;5121830;27;20292;-65
2023/10/03 08:50:39;;;;;;;8.02;4.80;;;28.10;93.10;;;;;;5124481;27;20281;-66
2023/10/03 08:53:16;;;;;;;7.57;4.85;;;28.30;92.50;;;;;;5122471;27;20206;-65
2023/10/03 08:55:45;;;;;;;8.00;5.25;;;28.40;92.40;;;;;;5120849;27;20273;-66
2023/10/03 08:58:15;;;;;;;7.95;5.00;;;28.50;91.90;;;;;;5122945;27;20649;-65
2023/10/03 09:00:44;;;;;;;7.30;4.78;;;28.60;91.90;;;;;;5124573;27;20202;-65
2023/10/03 09:03:13;;;;;;;10.90;6.55;;;28.70;91.90;;;;;;5121794;27;20219;-65
2023/10/03 09:05:42;;;;;;;9.00;4.88;;;28.90;91.70;;;;;;5120334;27;20693;-65
2023/10/03 09:08:09;;;;;;;7.10;4.93;;;29.00;91.40;;;;;;5122477;27;20219;-66
2023/10/03 09:10:50;;;;;;;7.07;4.65;;;29.20;91.40;;;;;;5123839;27;20207;-66
2023/10/03 09:13:23;;;;;;;8.70;5.35;;;29.40;91.20;;;;;;5120724;27;20203;-67
2023/10/03 09:15:51;;;;;;;8.82;4.80;;;29.50;90.90;;;;;;5120427;27;20217;-66
2023/10/03 09:18:21;;;;;;;9.32;5.15;;;29.50;90.80;;;;;;5123095;27;20233;-68
2023/10/03 09:20:52;;;;;;;10.38;4.65;;;29.40;90.80;;;;;;5124068;27;20199;-65
2023/10/03 09:23:18;;;;;;;9.60;5.05;;;29.30;91.10;;;;;;5120332;27;20208;-66
2023/10/03 09:25:52;;;;;;;7.65;4.57;;;29.30;90.90;;;;;;5120059;27;20305;-65
2023/10/03 09:28:19;;;;;;;12.48;5.32;;;29.40;91.10;;;;;;5123414;27;20763;-66
2023/10/03 09:30:46;;;;;;;8.88;5.20;;;29.50;90.80;;;;;;5123598;27;20238;-66
2023/10/03 09:33:16;;;;;;;10.02;4.75;;;29.60;90.50;;;;;;5121210;27;20595;-66
2023/10/03 09:36:00;;;;;;;8.75;5.03;;;29.70;90.60;;;;;;5120098;27;20253;-66
2023/10/03 09:38:42;;;;;;;9.57;4.80;;;29.70;90.60;;;;;;5112566;27;20219;-64
2023/10/03 09:41:09;;;;;;;10.20;4.85;;;29.40;90.70;;;;;;5121644;27;20704;-65
2023/10/03 09:43:36;;;;;;;7.25;4.72;;;29.20;91.10;;;;;;5123802;27;20199;-63
2023/10/03 09:46:04;;;;;;;7.22;4.95;;;29.10;91.50;;;;;;5121961;27;20683;-62
2023/10/03 09:48:32;;;;;;;6.18;4.25;;;29.00;91.50;;;;;;5119865;27;20253;-61
2023/10/03 09:51:05;;;;;;;8.38;5.50;;;28.80;92.00;;;;;;5120254;27;20203;-63
2023/10/03 09:53:33;;;;;;;7.10;4.53;;;28.80;92.00;;;;;;5123289;27;20199;-64
2023/10/03 09:56:08;;;;;;;7.38;4.43;;;28.80;92.00;;;;;;5122629;27;20199;-63
2023/10/03 09:58:35;;;;;;;7.10;3.83;;;28.90;92.00;;;;;;5119969;27;20223;-64
2023/10/03 10:01:02;;;;;;;6.28;4.35;;;28.90;92.00;;;;;;5120884;27;20200;-64
2023/10/03 10:03:35;;;;;;;7.60;4.25;;;29.00;91.80;;;;;;5123997;28;20194;-64
2023/10/03 10:06:22;;;;;;;9.50;3.97;;;29.00;91.80;;;;;;5121752;28;20219;-64
2023/10/03 10:08:57;;;;;;;7.72;3.92;;;29.10;91.80;;;;;;5114598;28;20223;-66
2023/10/03 10:11:26;;;;;;;8.23;4.20;;;29.20;91.90;;;;;;5112706;28;20211;-64
2023/10/03 10:14:08;;;;;;;6.63;4.05;;;29.20;91.70;;;;;;5120388;28;20583;-64
2023/10/03 10:16:35;;;;;;;7.75;4.25;;;29.30;91.50;;;;;;5112864;28;20199;-64
2023/10/03 10:19:04;;;;;;;5.65;3.97;;;29.50;91.40;;;;;;5120322;28;20309;-63
2023/10/03 10:21:36;;;;;;;6.68;3.70;;;29.60;91.40;;;;;;5123589;28;20566;-58
2023/10/03 10:24:28;;;;;;;7.10;4.18;;;29.80;91.10;;;;;;5122392;28;20306;-59
2023/10/03 10:26:59;;;;;;;8.18;4.05;;;30.00;90.80;;;;;;5119267;28;20272;-62
2023/10/03 10:29:28;;;;;;;9.25;3.60;;;30.20;90.50;;;;;;5112012;28;20229;-65
2023/10/03 10:31:58;;;;;;;6.88;4.13;;;30.30;90.30;;;;;;5119992;28;20226;-64
2023/10/03 10:34:37;;;;;;;6.13;3.83;;;30.50;90.10;;;;;;5114148;28;20660;-64
2023/10/03 10:37:09;;;;;;;6.13;3.80;;;30.80;89.70;;;;;;5122644;28;20208;-65
2023/10/03 10:40:22;;;;;;;7.07;3.92;;;31.00;88.90;;;;;;5125964;28;20306;-65
2023/10/03 10:42:59;;;;;;;9.10;5.60;;;31.30;88.10;;;;;;5117208;28;20200;-64
2023/10/03 10:45:26;;;;;;;7.65;4.05;;;31.50;87.60;;;;;;5114212;28;20212;-65
2023/10/03 10:47:55;;;;;;;10.10;4.97;;;31.80;86.80;;;;;;5120479;28;20235;-65
2023/10/03 10:50:25;;;;;;;5.70;4.43;;;31.80;87.00;;;;;;5126000;28;20199;-67
2023/10/03 10:52:56;;;;;;;10.77;6.50;;;31.90;86.70;;;;;;5125380;28;20203;-66
2023/10/03 10:55:23;;;;;;;8.63;5.40;;;31.90;86.90;;;;;;5113330;28;20640;-65
2023/10/03 10:58:03;;;;;;;6.78;4.50;;;32.10;86.30;;;;;;5122426;28;20224;-65
2023/10/03 11:00:33;;;;;;;9.40;4.65;;;32.20;85.90;;;;;;5114559;28;20286;-64
2023/10/03 11:03:00;;;;;;;7.47;5.22;;;32.20;85.40;;;;;;5122447;28;20208;-65
2023/10/03 11:05:40;;;;;;;6.72;4.03;;;32.30;84.80;;;;;;5124205;28;20215;-66
2023/10/03 11:08:08;;;;;;;5.53;3.97;;;32.40;84.60;;;;;;5124946;27;20227;-65
2023/10/03 11:10:34;;;;;;;8.38;4.20;;;32.50;84.30;;;;;;5128550;27;20325;-67
2023/10/03 11:13:04;;;;;;;7.97;3.88;;;32.50;84.00;;;;;;5127016;27;20247;-64
2023/10/03 11:15:30;;;;;;;7.28;5.82;;;32.50;84.10;;;;;;5115764;28;20196;-61
2023/10/03 11:17:58;;;;;;;5.47;4.40;;;32.40;84.40;;;;;;5122505;27;20219;-60
2023/10/03 11:20:26;;;;;;;6.20;3.83;;;32.20;84.20;;;;;;5114102;27;20200;-60
2023/10/03 11:22:53;;;;;;;4.72;3.47;;;32.20;84.70;;;;;;5110900;27;20726;-61
2023/10/03 11:25:21;;;;;;;6.47;3.63;;;32.10;85.00;;;;;;5114143;28;20230;-63
2023/10/03 11:27:48;;;;;;;8.55;4.30;;;31.90;85.60;;;;;;5113727;28;20227;-59
2023/10/03 11:30:17;;;;;;;9.27;3.65;;;31.80;85.60;;;;;;5116790;27;20203;-59
2023/10/03 11:32:45;;;;;;;6.18;4.47;;;31.60;86.70;;;;;;5126044;27;20203;-59
2023/10/03 11:35:16;;;;;;;10.07;5.05;;;31.40;87.20;;;;;;5124439;27;20203;-60
2023/10/03 11:37:46;;;;;;;10.55;5.18;;;31.30;88.60;;;;;;5122297;27;20223;-59
2023/10/03 11:40:15;;;;;;;8.05;4.20;;;31.30;89.00;;;;;;5124354;27;20204;-60
2023/10/03 11:42:47;;;;;;;4.80;3.85;;;31.30;89.00;;;;;;5125787;27;20231;-60
2023/10/03 11:45:19;;;;;;;7.63;5.28;;;31.10;89.50;;;;;;5123789;27;20208;-60
2023/10/03 11:47:58;;;;;;;7.78;4.97;;;30.80;90.20;;;;;;5121792;27;20780;-60
2023/10/03 11:50:26;;;;;;;22.85;20.55;;;30.60;90.60;;;;;;5113791;27;20714;-60
2023/10/03 11:52:54;;;;;;;6.03;4.00;;;30.60;90.60;;;;;;5122416;27;20293;-60
2023/10/03 11:55:20;;;;;;;7.55;4.32;;;30.50;90.70;;;;;;5125491;27;20206;-60
2023/10/03 11:57:48;;;;;;;6.88;4.40;;;30.40;90.70;;;;;;5125417;27;20225;-60
2023/10/03 12:00:16;;;;;;;6.72;4.15;;;30.50;90.70;;;;;;5123253;27;20203;-59
2023/10/03 12:02:45;;;;;;;7.88;4.30;;;30.40;90.60;;;;;;5122077;27;20317;-59
2023/10/03 12:05:12;;;;;;;7.47;4.32;;;30.20;90.50;;;;;;5123654;27;20591;-60
2023/10/03 12:07:40;;;;;;;36.80;29.70;;;29.90;91.00;;;;;;5125259;27;20199;-59
2023/10/03 12:10:10;;;;;;;8.32;4.25;;;29.60;91.30;;;;;;5124481;27;20206;-61
2023/10/03 12:12:37;;;;;;;7.38;4.13;;;29.30;91.60;;;;;;5121522;27;20665;-60
2023/10/03 12:15:12;;;;;;;10.13;4.63;;;28.90;92.00;;;;;;5122003;27;20268;-61
2023/10/03 12:17:39;;;;;;;8.18;4.55;;;28.80;92.20;;;;;;5125010;27;20198;-60
2023/10/03 12:20:10;;;;;;;9.10;4.72;;;28.60;92.70;;;;;;5124493;27;20203;-61
2023/10/03 12:22:39;;;;;;;9.88;4.20;;;28.40;93.10;;;;;;5121505;27;20532;-60
2023/10/03 12:25:08;;;;;;;5.70;4.00;;;28.30;93.20;;;;;;5122199;27;20330;-61
2023/10/03 12:27:35;;;;;;;7.68;4.30;;;28.10;93.70;;;;;;5124821;27;20209;-62
2023/10/03 12:30:04;;;;;;;7.75;4.53;;;28.00;93.90;;;;;;5124653;27;20229;-60
2023/10/03 12:32:34;;;;;;;7.22;4.47;;;28.00;94.50;;;;;;5121403;27;20203;-61
2023/10/03 12:35:01;;;;;;;6.45;4.35;;;28.00;94.50;;;;;;5121345;27;20290;-58
2023/10/03 12:37:28;;;;;;;7.45;4.45;;;28.00;94.70;;;;;;5124407;27;20203;-59
2023/10/03 12:39:55;;;;;;;6.47;4.45;;;28.00;94.90;;;;;;5124564;27;20205;-60
2023/10/03 12:42:22;;;;;;;7.70;4.40;;;28.10;94.90;;;;;;5121186;27;20287;-60
2023/10/03 12:44:50;;;;;;;9.25;4.53;;;28.20;94.90;;;;;;5121174;27;20203;-59